Clarendon, North Carolina
Current Conditions -  °F | °C
As of 10:35 PM on Monday 22 Dec 2014 (Local Time) from KCPC Reporting Station
Haze Haze  
Wind Chill: 43°   Ceiling: 200
Heat Index: 43°   Visibility: 1.2mi
Dew Point: 42°   Wind: 3mph
Humidity: 97%   Direction: 20°NNE
Pressure: 30.05"   Gusts: NA
Location:  34.21°N, 78.85°W
Report Text: KCPC 230335Z AUTO 02003KT 1 1/4SM BR OVC002 06/06 A3005 RMK AO2 T00600056
Loading
Personal Weather Stations






























Interactive Weather Map New forecast layout! Learn more

10-Day Weather Forecast

Advertisements
Track Severe Weather on mobile